Time;durP1;ratioP1;P1;durP2;ratioP2;P2;SDS_P1;SDS_P2;PMS_P1;PMS_P2;Temp;Humidity;BMP_temperature;BMP_pressure;BME280_temperature;BME280_humidity;BME280_pressure;Samples;Min_cycle;Max_cycle;Signal;HPM_P1;HPM_P2
2022/09/14 00:00:04;;;;;;;663.03;619.72;;;;;;;;;;10402310;28;20628;-84
2022/09/14 00:05:20;;;;;;;664.92;621.22;;;;;;;;;;10389377;28;20064;-81
2022/09/14 00:10:22;;;;;;;808.88;753.45;;;;;;;;;;10397133;28;20031;-83
2022/09/14 00:15:22;;;;;;;809.20;753.58;;;;;;;;;;10398947;28;20053;-84
2022/09/14 00:20:22;;;;;;;726.03;677.45;;;;;;;;;;10396310;28;20125;-81
2022/09/14 00:25:25;;;;;;;630.17;589.83;;;;;;;;;;10397192;28;20022;-82
2022/09/14 00:30:26;;;;;;;528.03;495.75;;;;;;;;;;10394893;28;20033;-82
2022/09/14 00:35:27;;;;;;;495.45;465.90;;;;;;;;;;10401162;28;20483;-84
2022/09/14 00:40:32;;;;;;;370.10;350.08;;;;;;;;;;10407971;28;20093;-82
2022/09/14 00:45:32;;;;;;;431.58;407.02;;;;;;;;;;10406905;28;20026;-81
2022/09/14 00:50:33;;;;;;;564.03;529.15;;;;;;;;;;10397262;28;20411;-80
2022/09/14 00:55:37;;;;;;;607.60;569.17;;;;;;;;;;10375728;28;20058;-82
2022/09/14 01:00:37;;;;;;;604.70;566.80;;;;;;;;;;10418207;28;20043;-82
2022/09/14 01:05:53;;;;;;;488.88;459.55;;;;;;;;;;10406622;28;20543;-80
2022/09/14 01:11:03;;;;;;;471.90;443.17;;;;;;;;;;10354387;28;20104;-82
2022/09/14 01:16:06;;;;;;;533.35;500.80;;;;;;;;;;10390104;28;20121;-82
2022/09/14 01:21:42;;;;;;;514.72;483.60;;;;;;;;;;10395975;28;20025;-82
2022/09/14 01:27:04;;;;;;;387.63;365.88;;;;;;;;;;10273843;28;20065;-83
2022/09/14 01:32:09;;;;;;;688.03;643.53;;;;;;;;;;10380463;28;20487;-81
2022/09/14 01:37:14;;;;;;;706.90;660.88;;;;;;;;;;10394968;28;20037;-82
2022/09/14 01:42:16;;;;;;;8.00;5.80;;;;;;;;;;10393879;28;20026;-81
2022/09/14 01:47:26;;;;;;;5.93;3.88;;;;;;;;;;10394311;28;20024;-83
2022/09/14 01:52:30;;;;;;;10.02;4.03;;;;;;;;;;10394469;28;20052;-81
2022/09/14 01:57:42;;;;;;;6.20;4.30;;;;;;;;;;10370431;28;20057;-82
2022/09/14 02:02:48;;;;;;;8.23;4.18;;;;;;;;;;10367839;28;20018;-83
2022/09/14 02:07:49;;;;;;;7.38;4.30;;;;;;;;;;10370293;28;20033;-82
2022/09/14 02:12:51;;;;;;;11.80;4.77;;;;;;;;;;10370653;28;20030;-83
2022/09/14 02:17:52;;;;;;;6.82;4.72;;;;;;;;;;10371692;28;20053;-81
2022/09/14 02:22:52;;;;;;;9.73;4.40;;;;;;;;;;10367528;28;20122;-82
2022/09/14 02:28:09;;;;;;;525.38;480.50;;;;;;;;;;10368659;28;20025;-89
2022/09/14 02:33:11;;;;;;;883.60;816.73;;;;;;;;;;10364100;28;20424;-81
2022/09/14 02:38:30;;;;;;;882.13;814.92;;;;;;;;;;10365697;28;20041;-80
2022/09/14 02:43:36;;;;;;;850.13;784.92;;;;;;;;;;10366103;28;20032;-80
2022/09/14 02:48:43;;;;;;;877.35;810.47;;;;;;;;;;10367701;28;20045;-81
2022/09/14 02:53:56;;;;;;;887.45;821.03;;;;;;;;;;10374034;28;20080;-84
2022/09/14 02:58:57;;;;;;;874.08;808.17;;;;;;;;;;10389786;28;20115;-83
2022/09/14 03:04:07;;;;;;;891.00;821.50;;;;;;;;;;10398856;28;20547;-83
2022/09/14 03:09:09;;;;;;;886.40;819.60;;;;;;;;;;10372097;28;20029;-80
2022/09/14 03:14:10;;;;;;;852.78;786.45;;;;;;;;;;10407930;28;20026;-81
2022/09/14 03:19:11;;;;;;;893.90;826.85;;;;;;;;;;10389386;28;20031;-83
2022/09/14 03:24:11;;;;;;;874.33;806.42;;;;;;;;;;10388918;28;20024;-83
2022/09/14 03:29:11;;;;;;;883.00;814.88;;;;;;;;;;10390034;28;20029;-82
2022/09/14 03:34:11;;;;;;;910.85;841.88;;;;;;;;;;10391570;28;20033;-81
2022/09/14 03:39:12;;;;;;;900.55;831.45;;;;;;;;;;10403839;28;20021;-82
2022/09/14 03:44:12;;;;;;;849.57;782.13;;;;;;;;;;10396203;28;20052;-81
2022/09/14 03:49:12;;;;;;;856.65;790.63;;;;;;;;;;10383411;28;20029;-80
2022/09/14 03:54:13;;;;;;;857.57;792.57;;;;;;;;;;10375548;28;20435;-80
2022/09/14 03:59:26;;;;;;;848.72;782.78;;;;;;;;;;10381062;28;20288;-83
2022/09/14 04:04:49;;;;;;;835.38;768.95;;;;;;;;;;10402923;28;20026;-76
2022/09/14 04:09:51;;;;;;;843.38;776.05;;;;;;;;;;10406090;28;20022;-83
2022/09/14 04:14:52;;;;;;;849.17;782.13;;;;;;;;;;10382993;28;20125;-83
2022/09/14 04:19:52;;;;;;;860.22;793.03;;;;;;;;;;10386486;28;20578;-84
2022/09/14 04:30:57;;;;;;;825.40;757.83;;;;;;;;;;10408307;28;20059;-77
2022/09/14 04:36:19;;;;;;;838.95;773.92;;;;;;;;;;10390549;28;20033;-84
2022/09/14 04:41:21;;;;;;;853.60;780.95;;;;;;;;;;10385123;28;20037;-80
2022/09/14 04:46:30;;;;;;;843.03;761.72;;;;;;;;;;10390690;28;20537;-76
2022/09/14 04:51:33;;;;;;;865.85;784.67;;;;;;;;;;10415691;28;20022;-84
2022/09/14 04:56:37;;;;;;;878.58;797.63;;;;;;;;;;10357122;28;20050;-79
2022/09/14 05:01:50;;;;;;;876.10;799.13;;;;;;;;;;10359991;28;20060;-81
2022/09/14 05:06:55;;;;;;;921.17;836.20;;;;;;;;;;10379016;28;20112;-84
2022/09/14 05:12:02;;;;;;;934.10;847.10;;;;;;;;;;10356336;28;20057;-87
2022/09/14 05:17:04;;;;;;;938.85;856.08;;;;;;;;;;10362034;28;20053;-83
2022/09/14 05:22:04;;;;;;;919.65;839.35;;;;;;;;;;10374593;28;20132;-84
2022/09/14 05:27:07;;;;;;;930.65;850.05;;;;;;;;;;10371886;28;20120;-82
2022/09/14 05:32:10;;;;;;;935.17;855.38;;;;;;;;;;10373820;28;20495;-83
2022/09/14 05:37:11;;;;;;;919.60;841.35;;;;;;;;;;10366419;28;20031;-84
2022/09/14 05:42:11;;;;;;;932.03;851.20;;;;;;;;;;10374342;28;20021;-84
2022/09/14 05:47:18;;;;;;;945.00;862.92;;;;;;;;;;10374486;28;20029;-89
2022/09/14 05:52:19;;;;;;;954.50;872.60;;;;;;;;;;10360600;28;20064;-82
2022/09/14 05:57:21;;;;;;;954.63;870.78;;;;;;;;;;10399784;28;20042;-87
2022/09/14 06:02:21;;;;;;;981.08;896.70;;;;;;;;;;10362508;28;20618;-80
2022/09/14 06:07:21;;;;;;;982.75;898.05;;;;;;;;;;10377407;28;20025;-82
2022/09/14 06:12:22;;;;;;;994.40;908.92;;;;;;;;;;10376806;28;20024;-82
2022/09/14 06:17:22;;;;;;;999.80;912.07;;;;;;;;;;10368681;28;20029;-80
2022/09/14 06:22:35;;;;;;;998.57;908.77;;;;;;;;;;10388996;28;20292;-83
2022/09/14 06:27:36;;;;;;;997.33;907.85;;;;;;;;;;10378845;28;20022;-83
2022/09/14 06:32:39;;;;;;;1020.10;925.47;;;;;;;;;;10363642;28;20026;-86
2022/09/14 06:37:40;;;;;;;1027.45;932.83;;;;;;;;;;10391740;28;20527;-84
2022/09/14 06:42:40;;;;;;;1050.93;952.95;;;;;;;;;;10394116;28;20037;-79
2022/09/14 06:47:40;;;;;;;1040.60;941.60;;;;;;;;;;10379624;28;20102;-82
2022/09/14 06:52:40;;;;;;;1027.05;928.20;;;;;;;;;;10370264;28;20040;-78
2022/09/14 06:57:41;;;;;;;1059.30;957.70;;;;;;;;;;10357474;28;20049;-84
2022/09/14 07:02:41;;;;;;;1077.28;974.25;;;;;;;;;;10361718;28;20030;-80
2022/09/14 07:07:41;;;;;;;1061.80;957.88;;;;;;;;;;10350496;28;20022;-77
2022/09/14 07:12:42;;;;;;;1103.72;996.30;;;;;;;;;;10335593;28;20120;-76
2022/09/14 07:17:46;;;;;;;1133.53;999.90;;;;;;;;;;10336515;28;20049;-78
2022/09/14 07:22:46;;;;;;;1140.85;999.90;;;;;;;;;;10350292;28;20030;-80
2022/09/14 07:27:46;;;;;;;1162.95;999.90;;;;;;;;;;10352498;28;20038;-81
2022/09/14 07:32:46;;;;;;;1149.07;999.90;;;;;;;;;;10348546;28;20037;-83
2022/09/14 07:37:47;;;;;;;1153.55;999.90;;;;;;;;;;10341629;28;20040;-80
2022/09/14 07:42:51;;;;;;;1177.75;999.90;;;;;;;;;;10348947;28;20064;-78
2022/09/14 07:47:51;;;;;;;1174.88;999.90;;;;;;;;;;10349448;28;20030;-75
2022/09/14 07:52:52;;;;;;;1174.10;999.90;;;;;;;;;;10382776;28;20534;-75
2022/09/14 07:57:58;;;;;;;1173.68;999.90;;;;;;;;;;10365675;28;20080;-74
2022/09/14 08:03:02;;;;;;;1202.32;999.90;;;;;;;;;;10358881;28;20123;-82
2022/09/14 08:08:04;;;;;;;1214.18;999.90;;;;;;;;;;10372059;28;20022;-75
2022/09/14 08:13:07;;;;;;;1200.18;999.90;;;;;;;;;;10341075;28;20022;-78
2022/09/14 08:18:09;;;;;;;1210.72;999.90;;;;;;;;;;10341549;28;20025;-80
2022/09/14 08:23:10;;;;;;;1229.05;999.90;;;;;;;;;;10350386;28;20030;-77
2022/09/14 08:28:10;;;;;;;1225.63;999.90;;;;;;;;;;10350796;28;20022;-77
2022/09/14 08:33:10;;;;;;;1242.13;999.90;;;;;;;;;;10354024;28;20664;-76
2022/09/14 08:38:10;;;;;;;1194.38;999.90;;;;;;;;;;10348390;28;20035;-78
2022/09/14 08:43:12;;;;;;;1212.78;999.90;;;;;;;;;;10349441;28;20021;-81
2022/09/14 08:48:21;;;;;;;1202.85;999.90;;;;;;;;;;10348000;28;20029;-81
2022/09/14 08:53:22;;;;;;;1190.97;999.90;;;;;;;;;;10350118;28;20019;-74
2022/09/14 08:58:47;;;;;;;1112.10;999.90;;;;;;;;;;10349307;28;20176;-77
2022/09/14 09:03:56;;;;;;;1188.88;999.90;;;;;;;;;;10348172;28;20053;-74
2022/09/14 09:09:17;;;;;;;1151.03;999.90;;;;;;;;;;10342625;28;20034;-80
2022/09/14 09:14:24;;;;;;;1062.82;970.90;;;;;;;;;;10346622;28;20030;-75
2022/09/14 09:19:25;;;;;;;;;;;;;;;;;;10348574;28;20033;-77
2022/09/14 09:24:25;;;;;;;1026.85;935.70;;;;;;;;;;10345163;28;19910;-78
2022/09/14 09:29:25;;;;;;;1061.03;966.77;;;;;;;;;;10342131;28;20033;-80
2022/09/14 09:34:27;;;;;;;1195.57;999.90;;;;;;;;;;10356022;28;20045;-77
2022/09/14 09:39:32;;;;;;;1222.95;999.90;;;;;;;;;;10342627;28;20460;-79
2022/09/14 09:44:51;;;;;;;1228.00;999.90;;;;;;;;;;10341930;28;20113;-78
2022/09/14 09:49:56;;;;;;;1265.90;999.90;;;;;;;;;;10343731;28;20034;-75
2022/09/14 09:54:57;;;;;;;1260.23;999.90;;;;;;;;;;10347234;28;20052;-78
2022/09/14 10:00:08;;;;;;;1287.65;999.90;;;;;;;;;;10378515;28;20060;-77
2022/09/14 10:05:08;;;;;;;1279.95;999.90;;;;;;;;;;10384861;28;20026;-81
2022/09/14 10:10:10;;;;;;;1284.53;999.90;;;;;;;;;;10383047;28;20415;-76
2022/09/14 10:15:10;;;;;;;1261.13;999.90;;;;;;;;;;10367309;28;20068;-76
2022/09/14 10:20:19;;;;;;;1270.30;999.90;;;;;;;;;;10372244;28;20044;-76
2022/09/14 10:25:21;;;;;;;1277.35;999.90;;;;;;;;;;10372717;28;20025;-75
2022/09/14 10:30:23;;;;;;;1266.35;999.90;;;;;;;;;;10371753;28;20029;-79
2022/09/14 10:35:27;;;;;;;1288.80;999.90;;;;;;;;;;10379145;28;20431;-76
2022/09/14 10:40:33;;;;;;;1269.67;999.90;;;;;;;;;;10391641;28;20024;-75
2022/09/14 10:45:34;;;;;;;1260.40;999.90;;;;;;;;;;10371053;28;20382;-75
2022/09/14 10:50:40;;;;;;;1279.22;999.90;;;;;;;;;;10333581;28;20104;-74
2022/09/14 10:55:43;;;;;;;1275.32;999.90;;;;;;;;;;10354822;28;20054;-79
2022/09/14 11:00:53;;;;;;;1265.63;999.90;;;;;;;;;;10358426;28;20041;-77
2022/09/14 11:06:19;;;;;;;1273.57;999.90;;;;;;;;;;10376961;28;20038;-81
2022/09/14 11:11:37;;;;;;;1273.82;999.90;;;;;;;;;;10364156;28;20518;-75
2022/09/14 11:16:53;;;;;;;1265.63;999.90;;;;;;;;;;10365350;28;20431;-76
2022/09/14 11:22:12;;;;;;;1263.45;999.90;;;;;;;;;;10363691;28;20030;-71
2022/09/14 11:27:18;;;;;;;1274.90;999.90;;;;;;;;;;10352842;28;20029;-77
2022/09/14 11:32:34;;;;;;;1268.07;999.90;;;;;;;;;;10366671;28;20136;-74
2022/09/14 11:37:38;;;;;;;1187.18;999.90;;;;;;;;;;10365241;28;20407;-73
2022/09/14 11:42:50;;;;;;;1237.35;999.90;;;;;;;;;;10364770;28;20061;-78
2022/09/14 11:48:17;;;;;;;1206.68;999.90;;;;;;;;;;10359247;28;20447;-76
2022/09/14 11:53:18;;;;;;;1196.82;999.90;;;;;;;;;;10317103;28;20042;-72
2022/09/14 11:58:22;;;;;;;1205.20;999.90;;;;;;;;;;10353170;28;20476;-73
2022/09/14 12:03:42;;;;;;;1194.38;999.90;;;;;;;;;;10341480;28;20028;-73
2022/09/14 12:08:42;;;;;;;1197.22;999.90;;;;;;;;;;10363901;28;20109;-80
2022/09/14 12:13:43;;;;;;;1209.90;999.90;;;;;;;;;;10364465;28;20044;-72
2022/09/14 12:18:44;;;;;;;1211.25;999.90;;;;;;;;;;10365624;28;20045;-73
2022/09/14 12:23:45;;;;;;;1219.65;999.90;;;;;;;;;;10381954;28;20025;-77
2022/09/14 12:28:51;;;;;;;1198.72;999.90;;;;;;;;;;10385470;28;20021;-74
2022/09/14 12:34:04;;;;;;;1191.55;999.90;;;;;;;;;;10380194;28;20026;-80
2022/09/14 12:39:18;;;;;;;1179.38;999.90;;;;;;;;;;10359232;28;20116;-77
2022/09/14 12:44:37;;;;;;;1221.28;999.90;;;;;;;;;;10381351;28;20553;-78
2022/09/14 12:49:38;;;;;;;1199.13;999.90;;;;;;;;;;10382852;28;20033;-77
2022/09/14 12:54:39;;;;;;;1169.50;999.90;;;;;;;;;;10381327;28;20049;-75
2022/09/14 12:59:42;;;;;;;1189.78;999.90;;;;;;;;;;10374074;28;20041;-74
2022/09/14 13:04:44;;;;;;;1100.13;999.70;;;;;;;;;;10371275;28;20481;-76
2022/09/14 13:09:52;;;;;;;1193.05;999.90;;;;;;;;;;10377169;28;20491;-77
2022/09/14 13:15:13;;;;;;;1186.35;999.90;;;;;;;;;;10366101;28;20125;-79
2022/09/14 13:20:16;;;;;;;1147.43;999.90;;;;;;;;;;10366626;28;20056;-76
2022/09/14 13:25:31;;;;;;;1163.22;999.90;;;;;;;;;;10386191;28;20040;-73
2022/09/14 13:30:32;;;;;;;1201.22;999.90;;;;;;;;;;10390278;28;20029;-77
2022/09/14 13:35:51;;;;;;;1205.32;999.90;;;;;;;;;;10380971;28;20038;-73
2022/09/14 13:40:53;;;;;;;1139.22;999.90;;;;;;;;;;10385575;28;20065;-79
2022/09/14 13:45:54;;;;;;;1157.88;999.90;;;;;;;;;;10378144;28;20026;-80
2022/09/14 13:50:54;;;;;;;1035.07;944.35;;;;;;;;;;10373261;28;20029;-78
2022/09/14 13:55:55;;;;;;;1048.28;956.92;;;;;;;;;;10387200;28;20512;-77
2022/09/14 14:00:59;;;;;;;1161.10;999.90;;;;;;;;;;10386991;28;20041;-74
2022/09/14 14:06:02;;;;;;;1193.85;999.90;;;;;;;;;;10372739;28;20113;-78
2022/09/14 14:11:04;;;;;;;1089.80;995.35;;;;;;;;;;10386471;28;20529;-74
2022/09/14 14:16:21;;;;;;;1095.25;998.28;;;;;;;;;;10385741;28;20053;-79
2022/09/14 14:21:21;;;;;;;1091.60;996.65;;;;;;;;;;10370632;28;20025;-73
2022/09/14 14:26:25;;;;;;;1107.67;999.90;;;;;;;;;;10386876;28;20025;-78
2022/09/14 14:31:26;;;;;;;1131.35;999.90;;;;;;;;;;10391756;28;20095;-73
2022/09/14 14:36:27;;;;;;;1216.53;999.90;;;;;;;;;;10387257;28;20437;-76
2022/09/14 14:41:27;;;;;;;1222.28;999.90;;;;;;;;;;10370781;28;20036;-73
2022/09/14 14:46:29;;;;;;;1203.18;999.90;;;;;;;;;;10375843;28;20416;-74
2022/09/14 14:51:29;;;;;;;1143.57;999.90;;;;;;;;;;10385074;28;20466;-78
2022/09/14 14:56:29;;;;;;;1153.75;999.90;;;;;;;;;;10375262;28;20045;-76
2022/09/14 15:01:29;;;;;;;1181.35;999.90;;;;;;;;;;10379442;28;20038;-75
2022/09/14 15:06:30;;;;;;;1200.20;999.90;;;;;;;;;;10370835;28;20104;-75
2022/09/14 15:11:30;;;;;;;1184.97;999.90;;;;;;;;;;10373302;28;20083;-74
2022/09/14 15:16:31;;;;;;;1210.00;999.90;;;;;;;;;;10380795;28;20033;-76
2022/09/14 15:21:31;;;;;;;1207.00;999.90;;;;;;;;;;10374700;28;20506;-74
2022/09/14 15:26:32;;;;;;;1204.93;999.90;;;;;;;;;;10374744;28;20025;-74
2022/09/14 15:31:32;;;;;;;1212.72;999.90;;;;;;;;;;10389505;28;20032;-73
2022/09/14 15:36:35;;;;;;;1207.30;999.90;;;;;;;;;;10364839;28;20484;-73
2022/09/14 15:41:36;;;;;;;1210.38;999.90;;;;;;;;;;10362031;28;20036;-75
2022/09/14 15:46:39;;;;;;;1211.15;999.90;;;;;;;;;;10373910;28;20842;-73
2022/09/14 15:51:43;;;;;;;1214.10;999.90;;;;;;;;;;10365422;28;20025;-74
2022/09/14 15:56:48;;;;;;;1212.45;999.90;;;;;;;;;;10367331;28;20058;-73
2022/09/14 16:01:48;;;;;;;1206.20;999.90;;;;;;;;;;10374351;28;20129;-76
2022/09/14 16:06:48;;;;;;;1213.82;999.90;;;;;;;;;;10385402;28;20788;-77
2022/09/14 16:11:49;;;;;;;1213.27;999.90;;;;;;;;;;10366873;28;20040;-74
2022/09/14 16:16:49;;;;;;;1200.85;999.90;;;;;;;;;;10383386;28;20087;-80
2022/09/14 16:21:49;;;;;;;1214.50;999.90;;;;;;;;;;10365557;28;20037;-73
2022/09/14 16:26:50;;;;;;;1227.05;999.90;;;;;;;;;;10364077;28;20021;-74
2022/09/14 16:31:52;;;;;;;1200.63;999.90;;;;;;;;;;10367606;28;20032;-78
2022/09/14 16:36:52;;;;;;;1201.18;999.90;;;;;;;;;;10372813;28;20037;-75
2022/09/14 16:41:54;;;;;;;1223.20;999.90;;;;;;;;;;10363897;28;20103;-74
2022/09/14 16:46:56;;;;;;;1193.80;999.90;;;;;;;;;;10372241;28;20108;-73
2022/09/14 16:51:59;;;;;;;1218.60;999.90;;;;;;;;;;10393200;28;20032;-74
2022/09/14 16:57:00;;;;;;;1200.20;999.90;;;;;;;;;;10370958;28;20060;-75
2022/09/14 17:02:00;;;;;;;1200.40;999.90;;;;;;;;;;10387655;28;20032;-77
2022/09/14 17:07:00;;;;;;;1197.30;999.90;;;;;;;;;;10376712;28;20108;-74
2022/09/14 17:12:01;;;;;;;1208.80;999.90;;;;;;;;;;10374927;28;20034;-77
2022/09/14 17:17:01;;;;;;;1209.25;999.90;;;;;;;;;;10365177;28;20140;-76
2022/09/14 17:22:04;;;;;;;1189.95;999.90;;;;;;;;;;10385137;23;20058;-77
2022/09/14 17:27:04;;;;;;;1172.82;999.90;;;;;;;;;;10355814;28;20531;-80
2022/09/14 17:32:08;;;;;;;1182.30;999.90;;;;;;;;;;10348391;28;20021;-76
2022/09/14 17:37:08;;;;;;;1180.90;999.90;;;;;;;;;;10349884;28;20065;-75
2022/09/14 17:42:10;;;;;;;1173.95;999.90;;;;;;;;;;10342393;28;20026;-76
2022/09/14 17:47:10;;;;;;;1178.65;999.90;;;;;;;;;;10311968;28;20460;-76
2022/09/14 17:52:10;;;;;;;1161.32;999.90;;;;;;;;;;10316939;28;20064;-79
2022/09/14 17:57:11;;;;;;;1163.20;999.90;;;;;;;;;;10285475;28;20037;-75
2022/09/14 18:02:11;;;;;;;1147.63;999.90;;;;;;;;;;10287956;28;20023;-77
2022/09/14 18:07:11;;;;;;;1154.40;999.90;;;;;;;;;;10290762;28;20068;-76
2022/09/14 18:12:14;;;;;;;1164.22;999.90;;;;;;;;;;10286532;28;20026;-77
2022/09/14 18:17:15;;;;;;;1175.30;999.90;;;;;;;;;;10291775;28;20027;-74
2022/09/14 18:22:15;;;;;;;1155.33;999.90;;;;;;;;;;10292255;28;20046;-75
2022/09/14 18:27:16;;;;;;;1177.20;999.90;;;;;;;;;;10314983;28;20550;-73
2022/09/14 18:32:16;;;;;;;1170.50;999.90;;;;;;;;;;10290121;28;20424;-74
2022/09/14 18:37:16;;;;;;;1166.22;999.90;;;;;;;;;;10298552;28;20296;-76
2022/09/14 18:42:16;;;;;;;1156.88;999.90;;;;;;;;;;10310657;28;20015;-76
2022/09/14 18:47:20;;;;;;;1158.80;999.90;;;;;;;;;;10296145;28;20118;-75
2022/09/14 18:52:20;;;;;;;1164.07;999.90;;;;;;;;;;10292291;28;20019;-74
2022/09/14 18:57:21;;;;;;;1132.63;999.90;;;;;;;;;;10312938;28;20049;-76
2022/09/14 19:02:21;;;;;;;1150.97;999.90;;;;;;;;;;10303951;28;20468;-75
2022/09/14 19:07:21;;;;;;;1133.88;999.90;;;;;;;;;;10310082;28;20508;-75
2022/09/14 19:12:21;;;;;;;1160.75;999.90;;;;;;;;;;10288034;28;20026;-75
2022/09/14 19:17:22;;;;;;;1187.70;999.90;;;;;;;;;;10292387;28;20456;-77
2022/09/14 19:22:22;;;;;;;1159.53;999.90;;;;;;;;;;10290671;28;20050;-74
2022/09/14 19:27:22;;;;;;;1149.38;999.90;;;;;;;;;;10303731;28;20018;-74
2022/09/14 19:32:23;;;;;;;1154.95;999.90;;;;;;;;;;10298612;28;20125;-74
2022/09/14 19:37:23;;;;;;;1147.00;999.90;;;;;;;;;;10306425;28;20057;-74
2022/09/14 19:42:24;;;;;;;1141.47;999.90;;;;;;;;;;10293034;28;20027;-74
2022/09/14 19:47:25;;;;;;;1166.47;999.90;;;;;;;;;;10305629;28;20049;-76
2022/09/14 19:52:25;;;;;;;1145.70;999.90;;;;;;;;;;10311832;28;20048;-77
2022/09/14 19:57:25;;;;;;;1142.10;999.90;;;;;;;;;;10289208;28;20113;-74
2022/09/14 20:02:25;;;;;;;1139.57;999.90;;;;;;;;;;10299513;28;20409;-75
2022/09/14 20:07:26;;;;;;;1147.05;999.90;;;;;;;;;;10311546;28;20039;-75
2022/09/14 20:12:26;;;;;;;1138.00;999.90;;;;;;;;;;10302698;28;20500;-75
2022/09/14 20:17:26;;;;;;;1141.65;999.90;;;;;;;;;;10318534;28;20412;-73
2022/09/14 20:22:27;;;;;;;1124.00;999.90;;;;;;;;;;10309129;28;20425;-76
2022/09/14 20:27:27;;;;;;;1124.90;999.90;;;;;;;;;;10312791;28;20026;-74
2022/09/14 20:32:28;;;;;;;1114.70;999.90;;;;;;;;;;10307172;28;20114;-74
2022/09/14 20:37:28;;;;;;;1120.20;999.90;;;;;;;;;;10310579;28;20035;-75
2022/09/14 20:42:28;;;;;;;1114.03;999.90;;;;;;;;;;10294222;28;20112;-75
2022/09/14 20:47:29;;;;;;;1122.55;999.90;;;;;;;;;;10319511;28;20349;-75
2022/09/14 20:52:29;;;;;;;1119.50;999.90;;;;;;;;;;10308653;28;20301;-77
2022/09/14 20:57:30;;;;;;;1136.57;999.90;;;;;;;;;;10296118;28;20030;-75
2022/09/14 21:02:32;;;;;;;1120.25;999.90;;;;;;;;;;10289802;28;20150;-75
2022/09/14 21:07:32;;;;;;;1132.25;999.90;;;;;;;;;;10312324;28;20524;-74
2022/09/14 21:12:33;;;;;;;1107.65;998.13;;;;;;;;;;10329398;28;20022;-74
2022/09/14 21:17:33;;;;;;;1124.18;999.90;;;;;;;;;;10311318;28;20396;-75
2022/09/14 21:22:33;;;;;;;1133.00;999.90;;;;;;;;;;10328462;28;20061;-78
2022/09/14 21:27:33;;;;;;;1101.30;994.53;;;;;;;;;;10311617;28;20164;-73
2022/09/14 21:32:34;;;;;;;1119.57;999.90;;;;;;;;;;10311745;28;20952;-77
2022/09/14 21:37:34;;;;;;;1107.28;997.63;;;;;;;;;;10309987;28;20041;-77
2022/09/14 21:42:34;;;;;;;1141.72;999.90;;;;;;;;;;10286657;28;20079;-77
2022/09/14 21:47:34;;;;;;;1116.35;999.90;;;;;;;;;;10310593;28;20022;-76
2022/09/14 21:52:39;;;;;;;1121.05;999.90;;;;;;;;;;10310759;28;20029;-75
2022/09/14 21:57:39;;;;;;;1124.95;999.90;;;;;;;;;;10327888;28;20092;-73
2022/09/14 22:02:39;;;;;;;1115.57;999.90;;;;;;;;;;10310750;28;20567;-73
2022/09/14 22:07:41;;;;;;;1143.57;999.90;;;;;;;;;;10309573;28;20014;-74
2022/09/14 22:12:41;;;;;;;1099.53;992.63;;;;;;;;;;10310428;28;20076;-74
2022/09/14 22:17:41;;;;;;;1115.95;999.90;;;;;;;;;;10309594;28;20113;-77
2022/09/14 22:22:42;;;;;;;1117.40;999.90;;;;;;;;;;10309199;28;20057;-73
2022/09/14 22:27:43;;;;;;;1120.13;999.90;;;;;;;;;;10326840;28;20038;-74
2022/09/14 22:32:43;;;;;;;1112.57;999.42;;;;;;;;;;10309169;28;20533;-74
2022/09/14 22:37:43;;;;;;;1117.97;999.90;;;;;;;;;;10308766;28;20030;-74
2022/09/14 22:42:43;;;;;;;1116.50;999.90;;;;;;;;;;10308625;28;20269;-76
2022/09/14 22:47:45;;;;;;;1092.05;986.55;;;;;;;;;;10292039;28;20010;-75
2022/09/14 22:52:45;;;;;;;1093.35;990.67;;;;;;;;;;10326380;28;20041;-78
2022/09/14 22:57:45;;;;;;;1100.37;996.30;;;;;;;;;;10308016;28;20435;-75
2022/09/14 23:02:45;;;;;;;1091.60;987.45;;;;;;;;;;10308345;28;20026;-78
2022/09/14 23:07:46;;;;;;;1105.40;997.97;;;;;;;;;;10308043;28;20114;-74
2022/09/14 23:12:46;;;;;;;1084.88;980.65;;;;;;;;;;10308195;28;20080;-75
2022/09/14 23:17:46;;;;;;;1110.88;999.65;;;;;;;;;;10307828;28;20022;-78
2022/09/14 23:22:46;;;;;;;1094.63;989.28;;;;;;;;;;10307071;28;20055;-75
2022/09/14 23:27:47;;;;;;;1105.57;997.75;;;;;;;;;;10283684;28;20022;-78
2022/09/14 23:32:47;;;;;;;1118.20;999.90;;;;;;;;;;10283596;28;20026;-78
2022/09/14 23:37:47;;;;;;;1105.53;997.45;;;;;;;;;;10307679;28;20026;-78
2022/09/14 23:42:47;;;;;;;1094.80;988.80;;;;;;;;;;10307220;28;20559;-74
2022/09/14 23:47:48;;;;;;;1116.47;999.90;;;;;;;;;;10307059;28;20542;-74
2022/09/14 23:52:48;;;;;;;1113.25;999.67;;;;;;;;;;10310302;28;20427;-75
2022/09/14 23:57:48;;;;;;;1104.93;998.05;;;;;;;;;;10307529;28;20029;-74
